Time;durP1;ratioP1;P1;durP2;ratioP2;P2;SDS_P1;SDS_P2;PMS_P1;PMS_P2;Temp;Humidity;BMP_temperature;BMP_pressure;BME280_temperature;BME280_humidity;BME280_pressure;Samples;Min_cycle;Max_cycle;Signal;HPM_P1;HPM_P2
2023/09/25 00:02:47;;;;;;;3.27;1.97;;;;;;;12.33;69.73;99908.97;7225727;40;20278;31
2023/09/25 00:13:28;;;;;;;2.53;1.80;;;;;;;12.57;68.80;99888.31;7257025;40;20282;31
2023/09/25 00:23:51;;;;;;;2.80;2.10;;;;;;;12.85;68.45;99882.66;7055416;40;20233;31
2023/09/25 00:29:29;;;;;;;3.77;1.90;;;;;;;12.89;68.81;99882.19;7259353;40;20771;31
2023/09/25 00:35:06;;;;;;;2.80;2.00;;;;;;;12.86;69.01;99878.94;7272937;40;20921;31
2023/09/25 00:45:46;;;;;;;4.53;1.90;;;;;;;12.90;68.64;99873.03;7293841;39;20271;31
2023/09/25 00:51:21;;;;;;;2.70;1.87;;;;;;;12.95;68.64;99875.25;7278053;40;20357;31
2023/09/25 01:02:00;;;;;;;3.00;2.20;;;;;;;12.78;69.50;99870.78;7318591;39;21138;31
2023/09/25 01:07:33;;;;;;;4.07;2.20;;;;;;;12.77;69.02;99861.00;7266832;40;20315;31
2023/09/25 01:13:09;;;;;;;2.95;2.15;;;;;;;12.72;69.18;99868.75;7233590;40;20245;31
2023/09/25 01:18:47;;;;;;;3.00;2.10;;;;;;;12.75;69.27;99866.56;7186912;40;20257;31
2023/09/25 01:24:23;;;;;;;2.73;2.20;;;;;;;12.73;69.33;99859.62;7250491;40;20457;31
2023/09/25 01:29:44;;;;;;;3.10;1.80;;;;;;;12.73;68.59;99859.62;7198196;40;20238;31
2023/09/25 01:35:23;;;;;;;3.27;2.30;;;;;;;12.68;69.29;99846.56;7220181;40;20257;31
2023/09/25 01:40:57;;;;;;;3.30;2.10;;;;;;;12.66;68.82;99851.31;7217251;40;20257;31
2023/09/25 01:46:18;;;;;;;2.70;2.00;;;;;;;12.61;69.01;99857.22;7180331;40;20247;31
2023/09/25 01:51:39;;;;;;;2.70;1.95;;;;;;;12.38;70.08;99845.28;7166514;40;20598;31
2023/09/25 01:57:15;;;;;;;4.30;2.30;;;;;;;12.25;70.48;99844.88;7226347;40;20246;31
2023/09/25 02:03:09;;;;;;;3.90;2.10;;;;;;;12.38;69.78;99833.63;7222741;40;20248;31
2023/09/25 02:08:45;;;;;;;4.05;2.15;;;;;;;12.40;69.74;99826.22;7257679;40;20294;31
2023/09/25 02:14:22;;;;;;;4.17;1.83;;;;;;;12.40;70.42;99827.06;7230618;40;20343;31
2023/09/25 02:20:08;;;;;;;2.93;2.10;;;;;;;12.46;69.85;99826.41;7206431;40;20585;31
2023/09/25 02:25:33;;;;;;;4.10;2.40;;;;;;;12.38;70.52;99817.41;7179615;40;20781;31
2023/09/25 02:31:09;;;;;;;2.83;1.93;;;;;;;12.32;70.66;99808.13;7128377;40;20345;31
2023/09/25 02:36:46;;;;;;;3.40;2.30;;;;;;;12.34;70.56;99802.53;7158718;40;20261;31
2023/09/25 02:42:21;;;;;;;3.70;2.35;;;;;;;12.29;70.70;99804.84;7188487;40;20777;31
2023/09/25 02:47:57;;;;;;;3.13;2.20;;;;;;;12.04;71.05;99809.31;7179901;40;20482;31
2023/09/25 02:53:32;;;;;;;3.00;2.40;;;;;;;11.77;70.89;99820.28;7178088;40;20254;31
2023/09/25 02:58:52;;;;;;;2.73;2.07;;;;;;;11.61;71.99;99823.72;7189204;40;20348;31
2023/09/25 03:04:29;;;;;;;2.70;2.10;;;;;;;11.58;72.72;99815.94;7194083;40;20260;31
2023/09/25 03:10:06;;;;;;;4.93;2.40;;;;;;;11.46;72.51;99823.41;7219306;40;20705;31
2023/09/25 03:15:27;;;;;;;2.65;2.15;;;;;;;11.49;72.04;99820.44;7266772;39;20479;31
2023/09/25 03:21:18;;;;;;;3.45;2.10;;;;;;;11.62;72.27;99811.91;7207653;40;20347;31
2023/09/25 03:26:26;;;;;;;5.57;2.27;;;;;;;11.71;71.38;99811.81;7287503;39;20360;31
2023/09/25 03:32:02;;;;;;;3.30;2.50;;;;;;;11.77;72.03;99810.34;7282707;39;20303;31
2023/09/25 03:37:35;;;;;;;4.00;2.50;;;;;;;11.71;72.05;99810.97;7313297;39;20516;31
2023/09/25 03:48:13;;;;;;;4.50;2.20;;;;;;;11.43;73.13;99804.00;7304200;39;20268;31
2023/09/25 03:53:50;;;;;;;4.10;2.97;;;;;;;11.32;73.52;99811.31;7271561;40;20238;31
2023/09/25 03:59:12;;;;;;;4.30;2.53;;;;;;;11.29;73.11;99802.69;7289293;39;20373;31
2023/09/25 04:04:49;;;;;;;2.87;2.20;;;;;;;11.11;73.60;99810.81;7297106;39;20339;31
2023/09/25 04:10:27;;;;;;;3.65;2.20;;;;;;;11.29;73.73;99800.00;7264290;40;20794;31
2023/09/25 04:16:02;;;;;;;5.33;2.37;;;;;;;11.43;73.29;99804.84;7256528;40;20219;31
2023/09/25 04:21:22;;;;;;;5.60;2.50;;;;;;;11.51;72.20;99802.19;7277621;40;20315;31
2023/09/25 04:26:58;;;;;;;4.60;2.33;;;;;;;11.36;73.12;99809.19;7256600;40;20268;31
2023/09/25 04:32:33;;;;;;;3.33;2.13;;;;;;;11.36;72.03;99820.00;7289083;39;20256;31
2023/09/25 04:38:09;;;;;;;4.85;2.30;;;;;;;11.25;72.50;99817.50;7294488;39;20317;31
2023/09/25 04:43:47;;;;;;;2.70;2.05;;;;;;;11.14;72.46;99812.38;7288763;39;20259;31
2023/09/25 04:54:12;;;;;;;4.05;2.20;;;;;;;10.49;73.67;99817.06;7298715;39;21112;31
2023/09/25 04:59:50;;;;;;;6.17;2.60;;;;;;;10.46;73.58;99822.78;7330334;39;20232;31
2023/09/25 05:05:23;;;;;;;3.65;2.20;;;;;;;10.86;72.87;99825.06;7297326;39;20277;31
2023/09/25 05:10:58;;;;;;;3.70;2.10;;;;;;;10.91;71.79;99835.41;7290042;39;20809;31
2023/09/25 05:21:35;;;;;;;3.20;2.30;;;;;;;10.90;71.38;99844.50;7255176;40;21353;31
2023/09/25 05:26:55;;;;;;;4.23;2.60;;;;;;;10.75;72.43;99839.63;7262913;40;20249;31
2023/09/25 05:32:30;;;;;;;3.20;2.40;;;;;;;10.72;73.66;99842.63;7290456;39;20356;31
2023/09/25 05:43:10;;;;;;;4.60;2.40;;;;;;;10.42;73.80;99850.19;7253243;40;20283;31
2023/09/25 05:48:30;;;;;;;5.07;2.47;;;;;;;10.34;74.44;99859.00;7255330;40;20277;31
2023/09/25 05:53:51;;;;;;;3.40;2.30;;;;;;;10.48;74.31;99860.38;7277642;39;20253;31
2023/09/25 06:05:05;;;;;;;4.37;2.70;;;;;;;10.31;75.48;99857.44;7277847;39;20558;31
2023/09/25 06:10:25;;;;;;;4.90;2.40;;;;;;;10.46;75.51;99852.44;7359081;39;20236;31
2023/09/25 06:16:02;;;;;;;5.37;2.63;;;;;;;10.52;76.53;99848.28;7349049;39;20259;31
2023/09/25 06:21:22;;;;;;;4.65;2.60;;;;;;;10.60;76.10;99854.63;7302507;40;20345;31
2023/09/25 06:26:59;;;;;;;4.10;2.70;;;;;;;10.74;75.17;99858.66;7297788;40;20240;31
2023/09/25 06:32:34;;;;;;;2.93;2.53;;;;;;;10.97;74.81;99864.47;7246224;40;20242;31
2023/09/25 06:38:19;;;;;;;;;;;;;;;;;;;;;
2023/09/25 06:48:50;;;;;;;3.60;2.40;;;;;;;11.56;73.97;99867.38;7259256;40;20259;31
2023/09/25 06:59:14;;;;;;;4.50;2.10;;;;;;;12.07;72.32;99873.84;7343724;39;20758;31
2023/09/25 07:04:44;;;;;;;4.00;2.30;;;;;;;12.32;72.15;99878.41;7320914;39;20244;31
2023/09/25 07:15:22;;;;;;;4.23;2.07;;;;;;;12.66;71.44;99859.44;7316317;39;21118;31
2023/09/25 07:20:40;;;;;;;3.37;2.20;;;;;;;12.82;71.05;99864.87;7086945;40;20338;31
2023/09/25 07:26:15;;;;;;;3.13;2.03;;;;;;;12.99;70.61;99876.59;7298692;39;20334;31
2023/09/25 07:31:51;;;;;;;3.30;2.07;;;;;;;13.18;70.06;99880.91;7218077;40;20731;31
2023/09/25 07:37:23;;;;;;;3.55;2.15;;;;;;;13.28;69.18;99882.47;7202779;40;20266;31
2023/09/25 07:42:58;;;;;;;3.50;2.00;;;;;;;13.44;68.91;99889.75;7202687;40;20239;31
2023/09/25 07:48:33;;;;;;;3.77;2.20;;;;;;;13.58;68.43;99893.66;7270245;39;20337;31
2023/09/25 07:54:08;;;;;;;4.10;2.13;;;;;;;13.73;68.55;99882.00;7232386;40;20374;31
2023/09/25 07:59:28;;;;;;;3.70;2.50;;;;;;;13.92;67.96;99886.19;7278933;39;20318;31
2023/09/25 08:10:09;;;;;;;3.50;2.30;;;;;;;14.14;67.29;99890.91;7268982;40;20274;31
2023/09/25 08:20:47;;;;;;;3.00;2.07;;;;;;;14.43;66.52;99893.94;7273642;39;20264;31
2023/09/25 08:31:27;;;;;;;3.75;2.00;;;;;;;14.70;66.08;99899.94;7302680;39;21119;31
2023/09/25 08:42:06;;;;;;;5.40;2.10;;;;;;;15.02;64.99;99901.63;7282320;40;21395;31
2023/09/25 08:52:47;;;;;;;3.43;2.10;;;;;;;15.23;64.42;99904.56;7293653;39;20718;31
2023/09/25 09:03:23;;;;;;;3.25;2.15;;;;;;;15.52;65.94;99906.62;7316995;39;20277;31
2023/09/25 09:14:02;;;;;;;6.70;2.50;;;;;;;15.89;64.91;99894.91;7285042;39;21196;31
2023/09/25 09:19:22;;;;;;;4.05;2.40;;;;;;;16.02;63.89;99898.72;7277405;40;20261;31
2023/09/25 09:30:14;;;;;;;;;;;;;;;;;;;;;
2023/09/25 09:35:33;;;;;;;3.50;2.30;;;;;;;16.30;62.65;99896.22;7284637;39;20489;31
2023/09/25 09:41:08;;;;;;;4.20;2.30;;;;;;;16.55;62.95;99883.19;7293772;39;20420;31
2023/09/25 09:46:44;;;;;;;3.13;2.13;;;;;;;16.61;62.70;99879.75;7253908;40;20256;31
2023/09/25 09:52:20;;;;;;;4.40;2.30;;;;;;;16.77;62.78;99884.13;7179459;40;20527;31
2023/09/25 09:57:54;;;;;;;9.40;2.20;;;;;;;16.92;61.58;99882.25;7213921;40;20231;31
2023/09/25 10:03:31;;;;;;;3.10;2.33;;;;;;;17.13;61.16;99877.69;7196142;40;20242;31
2023/09/25 10:09:15;;;;;;;3.90;2.17;;;;;;;17.31;60.67;99870.97;7211641;40;20242;31
2023/09/25 10:14:53;;;;;;;7.67;2.50;;;;;;;17.40;60.00;99864.34;7166384;40;20244;31
2023/09/25 10:20:45;;;;;;;4.73;2.20;;;;;;;17.65;60.43;99862.94;7178034;40;20326;31
2023/09/25 10:26:19;;;;;;;4.00;1.90;;;;;;;17.80;58.62;99862.88;7236474;40;20307;31
2023/09/25 10:36:59;;;;;;;3.00;2.30;;;;;;;18.11;58.70;99848.84;7255310;39;21149;31
2023/09/25 10:42:35;;;;;;;2.60;2.00;;;;;;;18.32;59.07;99846.06;7266902;39;20272;31
2023/09/25 10:58:47;;;;;;;3.40;2.20;;;;;;;19.01;55.65;99843.25;7256168;40;20568;31
2023/09/25 11:04:20;;;;;;;3.60;2.00;;;;;;;19.25;55.76;99838.09;7281589;39;20234;31
2023/09/25 11:09:56;;;;;;;2.80;2.30;;;;;;;19.41;51.11;99838.72;7281866;40;20233;31
2023/09/25 11:15:44;;;;;;;3.27;2.10;;;;;;;19.64;54.12;99836.50;7230371;40;20339;31
2023/09/25 11:21:05;;;;;;;3.93;2.10;;;;;;;19.82;53.94;99841.34;7257487;40;20229;31
2023/09/25 11:26:41;;;;;;;2.50;2.00;;;;;;;20.05;52.34;99836.28;7244570;40;20245;31
2023/09/25 11:32:16;;;;;;;5.20;2.40;;;;;;;20.22;51.94;99838.38;7246801;40;20412;31
2023/09/25 11:37:52;;;;;;;2.78;2.05;;;;;;;20.45;49.78;99837.91;7298802;39;20381;31
2023/09/25 11:43:28;;;;;;;3.20;2.10;;;;;;;20.56;51.07;99833.66;7320528;39;20348;31
2023/09/25 11:49:04;;;;;;;3.77;1.87;;;;;;;20.50;48.83;99824.41;7254514;40;20303;31
2023/09/25 11:54:25;;;;;;;2.70;1.80;;;;;;;20.72;49.53;99824.97;7239924;40;20249;31
2023/09/25 12:00:04;;;;;;;3.60;1.87;;;;;;;21.07;48.46;99819.94;7249828;40;20262;31
2023/09/25 12:05:37;;;;;;;3.97;2.10;;;;;;;21.33;47.38;99810.75;7295102;39;20236;31
2023/09/25 12:11:12;;;;;;;3.23;2.07;;;;;;;21.40;48.43;99809.66;7258697;40;20358;31
2023/09/25 12:16:49;;;;;;;3.20;2.00;;;;;;;21.46;46.56;99792.31;7271885;40;20265;31
2023/09/25 12:22:10;;;;;;;3.50;1.77;;;;;;;21.75;46.72;99792.72;7192277;40;20240;31
2023/09/25 12:27:45;;;;;;;3.60;1.80;;;;;;;21.88;47.80;99790.72;7237188;40;20271;31
2023/09/25 12:33:22;;;;;;;6.52;2.34;;;;;;;21.92;47.95;99794.72;7267463;40;20312;31
2023/09/25 12:38:57;;;;;;;7.25;2.10;;;;;;;21.99;47.71;99786.41;7251581;40;20238;31
2023/09/25 12:44:32;;;;;;;4.53;1.90;;;;;;;22.05;47.28;99784.66;7247565;40;20311;31
2023/09/25 12:50:10;;;;;;;3.10;2.00;;;;;;;22.23;47.06;99781.94;7265758;40;20250;31
2023/09/25 12:55:44;;;;;;;3.55;2.20;;;;;;;22.41;46.63;99780.03;7277726;39;20430;31
2023/09/25 13:01:03;;;;;;;3.60;2.10;;;;;;;22.53;47.37;99771.87;7328612;39;20324;31
2023/09/25 13:06:40;;;;;;;2.37;1.73;;;;;;;22.47;46.98;99770.88;7314915;39;20250;31
2023/09/25 13:12:16;;;;;;;3.40;1.90;;;;;;;22.51;45.12;99762.19;7278404;40;20256;31
2023/09/25 13:17:39;;;;;;;2.25;1.70;;;;;;;22.56;45.58;99773.31;7208749;40;20285;31
2023/09/25 13:23:14;;;;;;;3.65;1.92;;;;;;;22.54;45.39;99772.72;7207751;40;20261;31
2023/09/25 13:28:36;;;;;;;3.00;2.04;;;;;;;22.68;45.67;99779.72;7216640;40;20328;31
2023/09/25 13:34:11;;;;;;;2.40;1.90;;;;;;;22.80;45.77;99769.66;7241605;40;20246;31
2023/09/25 13:39:47;;;;;;;3.24;1.70;;;;;;;22.89;43.50;99777.34;7210751;40;20359;31
2023/09/25 13:45:22;;;;;;;4.40;2.03;;;;;;;22.91;45.41;99786.19;7206401;40;20265;31
2023/09/25 13:50:44;;;;;;;3.05;1.87;;;;;;;22.88;46.17;99780.31;7259037;40;20326;31
2023/09/25 13:56:19;;;;;;;2.73;1.90;;;;;;;22.87;45.50;99771.25;7276644;39;20282;31
2023/09/25 14:06:59;;;;;;;4.18;1.90;;;;;;;23.08;45.57;99772.63;7329213;39;20244;31
2023/09/25 14:12:32;;;;;;;2.58;1.70;;;;;;;23.03;44.44;99760.69;7087836;40;20248;31
2023/09/25 14:18:06;;;;;;;2.20;1.70;;;;;;;22.96;45.19;99760.75;7249840;40;21026;31
2023/09/25 14:23:27;;;;;;;2.50;1.80;;;;;;;22.96;43.76;99766.25;7278680;40;20234;31
2023/09/25 14:29:02;;;;;;;3.00;1.70;;;;;;;22.85;45.35;99764.31;7249088;40;20245;31
2023/09/25 14:34:37;;;;;;;3.45;2.22;;;;;;;22.81;46.26;99757.59;7257799;40;20311;31
2023/09/25 14:39:59;;;;;;;2.65;1.90;;;;;;;22.75;44.44;99755.75;7271050;40;20252;31
2023/09/25 14:45:34;;;;;;;2.47;1.95;;;;;;;22.62;45.58;99759.50;7261372;40;20256;31
2023/09/25 14:50:56;;;;;;;2.40;1.80;;;;;;;22.63;46.09;99757.59;7267685;39;20252;31
2023/09/25 14:56:12;;;;;;;2.52;1.90;;;;;;;22.57;46.44;99762.09;7305684;39;20239;31
2023/09/25 15:01:54;;;;;;;2.58;1.85;;;;;;;22.51;44.98;99754.75;7337514;39;20286;31
2023/09/25 15:07:37;;;;;;;4.10;1.95;;;;;;;22.41;46.37;99765.47;7274155;39;20290;31
2023/09/25 15:13:13;;;;;;;5.40;2.00;;;;;;;22.20;46.67;99752.19;7297901;39;21165;31
2023/09/25 15:18:49;;;;;;;2.53;2.00;;;;;;;22.05;47.26;99752.56;7323110;39;20252;31
2023/09/25 15:24:25;;;;;;;3.40;2.00;;;;;;;22.02;47.30;99753.00;7210538;40;20250;31
2023/09/25 15:29:45;;;;;;;3.35;2.10;;;;;;;22.01;47.79;99748.59;7217036;40;20320;31
2023/09/25 15:35:22;;;;;;;4.15;2.37;;;;;;;21.87;48.47;99750.59;7254303;40;20319;31
2023/09/25 15:40:57;;;;;;;2.30;1.90;;;;;;;21.79;48.98;99739.06;7245674;40;20298;31
2023/09/25 15:46:17;;;;;;;4.10;1.90;;;;;;;21.75;48.94;99746.06;7254269;39;20341;31
2023/09/25 15:51:54;;;;;;;3.10;1.90;;;;;;;21.64;49.41;99741.28;7284812;39;20243;31
2023/09/25 15:57:30;;;;;;;5.30;1.90;;;;;;;21.56;49.92;99745.16;7283704;39;20302;31
2023/09/25 16:03:08;;;;;;;2.42;1.90;;;;;;;21.56;50.03;99737.78;7224764;40;20426;31
2023/09/25 16:08:47;;;;;;;5.85;2.15;;;;;;;21.46;50.24;99737.44;7246242;40;21078;31
2023/09/25 16:14:07;;;;;;;4.65;2.30;;;;;;;21.40;50.18;99743.84;7212976;40;20329;31
2023/09/25 16:19:42;;;;;;;2.93;1.87;;;;;;;21.29;50.54;99741.81;7243289;40;20264;31
2023/09/25 16:30:28;;;;;;;3.35;2.20;;;;;;;21.10;51.30;99740.03;7293003;39;20268;31
2023/09/25 16:36:04;;;;;;;2.42;1.80;;;;;;;21.03;53.24;99751.03;7296791;39;20301;31
2023/09/25 16:41:40;;;;;;;3.45;1.75;;;;;;;20.89;54.06;99746.66;7234152;40;20289;31
2023/09/25 16:47:16;;;;;;;2.58;2.00;;;;;;;20.72;55.04;99750.16;7259040;40;20378;31
2023/09/25 16:52:36;;;;;;;3.53;2.10;;;;;;;20.53;55.77;99752.78;7200629;40;20242;31
2023/09/25 16:58:13;;;;;;;4.10;2.30;;;;;;;20.43;55.87;99755.13;7200233;40;20276;31
2023/09/25 17:03:48;;;;;;;3.15;2.33;;;;;;;20.25;56.48;99757.69;7212901;40;20264;31
2023/09/25 17:09:23;;;;;;;4.02;2.04;;;;;;;20.04;57.95;99766.16;7337174;39;20312;31
2023/09/25 17:14:43;;;;;;;3.45;2.15;;;;;;;19.91;56.92;99774.41;7229597;40;20344;31
2023/09/25 17:20:20;;;;;;;4.15;2.15;;;;;;;19.61;56.44;99769.38;7258643;40;20303;31
2023/09/25 17:25:40;;;;;;;3.86;2.30;;;;;;;19.43;57.30;99776.50;7203644;40;20257;31
2023/09/25 17:31:18;;;;;;;3.20;2.25;;;;;;;19.10;58.06;99773.69;7259413;39;20241;31
2023/09/25 17:36:53;;;;;;;5.20;2.22;;;;;;;18.86;58.72;99765.06;7297413;40;21175;31
2023/09/25 17:42:29;;;;;;;4.10;2.00;;;;;;;18.66;59.95;99764.13;7248115;40;20242;31
2023/09/25 17:48:04;;;;;;;4.40;2.50;;;;;;;18.33;61.93;99763.97;7219152;40;20364;31
2023/09/25 17:53:41;;;;;;;4.43;2.57;;;;;;;18.03;62.15;99763.38;7213292;40;20241;31
2023/09/25 17:59:01;;;;;;;5.20;2.25;;;;;;;17.75;62.30;99784.38;7204152;40;20242;31
2023/09/25 18:04:36;;;;;;;5.03;2.00;;;;;;;17.61;62.64;99777.12;7238034;40;20354;31
2023/09/25 18:10:11;;;;;;;2.30;2.10;;;;;;;17.51;62.86;99785.63;7238220;40;20246;31
2023/09/25 18:15:46;;;;;;;2.60;2.00;;;;;;;17.43;62.89;99793.09;7266216;40;20317;31
2023/09/25 18:21:06;;;;;;;3.40;2.27;;;;;;;17.17;63.31;99788.25;7215597;40;20261;31
2023/09/25 18:26:52;;;;;;;;;;;;;;;;;;;;;
2023/09/25 18:32:18;;;;;;;4.00;2.40;;;;;;;16.81;64.56;99784.69;7225777;40;20526;31
2023/09/25 18:43:01;;;;;;;2.97;2.05;;;;;;;16.33;65.84;99778.84;7200747;40;20423;31
2023/09/25 18:53:26;;;;;;;4.56;2.44;;;;;;;16.14;65.49;99787.63;7275215;39;20276;31
2023/09/25 19:04:08;;;;;;;2.60;2.10;;;;;;;16.40;64.67;99798.00;7343377;39;20257;31
2023/09/25 19:14:34;;;;;;;3.35;2.40;;;;;;;16.47;64.99;99791.59;7292407;39;20262;31
2023/09/25 19:20:10;;;;;;;3.33;2.33;;;;;;;16.58;65.33;99793.88;7315928;39;20341;31
2023/09/25 19:25:44;;;;;;;3.10;2.30;;;;;;;16.68;64.74;99794.41;7336269;39;20329;31
2023/09/25 19:31:20;;;;;;;3.40;2.10;;;;;;;16.65;65.04;99788.50;7317359;39;20265;31
2023/09/25 19:36:56;;;;;;;3.47;2.07;;;;;;;16.48;65.68;99793.31;7249530;40;20383;31
2023/09/25 19:42:17;;;;;;;3.37;2.20;;;;;;;16.30;65.96;99794.72;7209167;40;20246;31
2023/09/25 19:47:52;;;;;;;3.67;2.10;;;;;;;15.90;66.24;99794.16;7226909;40;20271;31
2023/09/25 19:53:28;;;;;;;3.40;2.40;;;;;;;16.02;66.01;99792.66;7253874;40;20270;31
2023/09/25 19:58:49;;;;;;;3.20;2.33;;;;;;;16.04;66.47;99800.63;7268301;39;20258;31
2023/09/25 20:04:24;;;;;;;2.25;2.00;;;;;;;15.67;68.48;99799.66;7320199;39;20578;31
2023/09/25 20:15:04;;;;;;;3.97;2.37;;;;;;;15.45;68.29;99781.47;7274677;39;21098;31
2023/09/25 20:20:25;;;;;;;4.67;2.47;;;;;;;15.29;67.75;99800.63;7266077;40;20257;31
2023/09/25 20:25:59;;;;;;;2.70;2.20;;;;;;;15.13;70.29;99789.91;7293022;39;20250;31
2023/09/25 20:31:33;;;;;;;3.30;2.50;;;;;;;15.26;70.14;99791.00;7238278;40;20347;31
2023/09/25 20:36:54;;;;;;;3.20;2.37;;;;;;;15.26;69.69;99796.44;7241740;40;20319;31
2023/09/25 20:42:27;;;;;;;3.30;2.40;;;;;;;14.94;70.67;99793.09;7257055;40;20248;31
2023/09/25 20:47:59;;;;;;;3.03;2.23;;;;;;;14.77;71.34;99790.50;7057677;40;21237;31
2023/09/25 20:53:33;;;;;;;3.50;2.30;;;;;;;14.92;71.02;99782.41;7216013;40;20262;31
2023/09/25 20:59:07;;;;;;;3.00;2.30;;;;;;;14.92;69.82;99776.97;7232489;40;20248;31
2023/09/25 21:04:43;;;;;;;6.00;2.70;;;;;;;14.72;71.49;99776.59;7192711;40;20664;31
2023/09/25 21:10:18;;;;;;;3.10;2.20;;;;;;;14.45;71.83;99774.38;7194296;40;20245;31
2023/09/25 21:15:50;;;;;;;2.90;2.27;;;;;;;14.49;72.14;99774.88;7220078;40;20254;31
2023/09/25 21:21:24;;;;;;;3.00;2.40;;;;;;;14.68;71.73;99774.44;7246089;40;20257;31
2023/09/25 21:27:00;;;;;;;3.50;2.60;;;;;;;14.66;71.68;99781.88;7198980;40;20258;31
2023/09/25 21:32:34;;;;;;;3.43;2.07;;;;;;;14.85;70.86;99782.28;7206267;40;20257;31
2023/09/25 21:38:10;;;;;;;2.60;2.23;;;;;;;14.95;70.30;99783.94;7247831;40;20311;31
2023/09/25 21:43:42;;;;;;;3.00;2.20;;;;;;;14.67;69.59;99784.44;7263798;40;20373;31
2023/09/25 21:54:20;;;;;;;3.60;2.50;;;;;;;14.61;70.60;99765.31;7270335;39;21176;31
2023/09/25 21:59:55;;;;;;;2.60;2.00;;;;;;;14.48;71.97;99771.31;7273010;40;20244;31
2023/09/25 22:05:15;;;;;;;2.50;2.27;;;;;;;14.14;72.43;99768.03;7254924;40;20253;31
2023/09/25 22:10:49;;;;;;;3.90;2.57;;;;;;;14.11;73.39;99762.97;7280223;40;20254;31
2023/09/25 22:16:26;;;;;;;5.10;2.50;;;;;;;14.12;72.92;99770.94;7233100;40;20599;31
2023/09/25 22:22:03;;;;;;;3.40;2.57;;;;;;;14.08;72.93;99766.06;7246124;40;20375;31
2023/09/25 22:27:39;;;;;;;4.15;2.70;;;;;;;14.35;72.38;99765.56;7260759;40;20316;31
2023/09/25 22:38:21;;;;;;;4.07;2.57;;;;;;;14.52;71.84;99752.84;7263327;40;21092;31
2023/09/25 22:43:57;;;;;;;3.70;2.30;;;;;;;14.30;72.38;99746.31;7245039;40;20343;31
2023/09/25 22:49:32;;;;;;;2.60;2.40;;;;;;;14.49;71.97;99750.44;7255987;40;20278;31
2023/09/25 23:00:16;;;;;;;3.63;2.60;;;;;;;14.03;72.75;99747.59;7256162;40;22061;31
2023/09/25 23:05:42;;;;;;;3.75;2.30;;;;;;;13.90;73.32;99741.87;7247542;40;20311;31
2023/09/25 23:11:03;;;;;;;3.93;2.60;;;;;;;13.90;74.04;99740.03;7257467;39;20269;31
2023/09/25 23:16:39;;;;;;;4.10;2.60;;;;;;;13.67;75.95;99730.94;7320921;39;20237;31
2023/09/25 23:22:14;;;;;;;2.90;2.50;;;;;;;13.59;76.22;99722.00;7310229;39;20240;31
2023/09/25 23:27:34;;;;;;;3.80;2.60;;;;;;;13.62;75.35;99735.19;7268087;40;20332;31
2023/09/25 23:33:12;;;;;;;5.55;2.80;;;;;;;13.54;76.11;99733.34;7273420;40;20400;31
2023/09/25 23:43:36;;;;;;;3.73;2.60;;;;;;;13.67;76.72;99733.66;7239870;40;20284;31
2023/09/25 23:54:17;;;;;;;5.50;2.90;;;;;;;13.70;77.40;99729.75;7309866;39;20258;31
2023/09/25 23:59:37;;;;;;;4.15;2.60;;;;;;;13.76;75.22;99731.78;7341758;39;20307;31
